Time;durP1;ratioP1;P1;durP2;ratioP2;P2;SDS_P1;SDS_P2;PMS_P1;PMS_P2;Temp;Humidity;BMP_temperature;BMP_pressure;BME280_temperature;BME280_humidity;BME280_pressure;Samples;Min_cycle;Max_cycle;Signal;HPM_P1;HPM_P2
2023/05/11 00:01:55;;;;;;;18.90;12.93;;;13.50;99.90;;;;;;5045869;28;20268;-60
2023/05/11 00:04:22;;;;;;;16.87;12.57;;;13.60;99.90;;;;;;5040067;28;20233;-60
2023/05/11 00:06:49;;;;;;;21.80;13.83;;;13.70;99.90;;;;;;5037904;28;20735;-60
2023/05/11 00:09:16;;;;;;;19.37;14.23;;;13.70;99.90;;;;;;5039790;28;20206;-60
2023/05/11 00:11:43;;;;;;;21.83;13.43;;;13.80;99.90;;;;;;5042102;28;20292;-60
2023/05/11 00:14:10;;;;;;;17.33;12.80;;;13.80;99.90;;;;;;5046385;28;20265;-60
2023/05/11 00:16:36;;;;;;;21.07;14.10;;;13.80;99.90;;;;;;5047910;28;20202;-59
2023/05/11 00:19:03;;;;;;;21.77;14.60;;;13.80;99.90;;;;;;5046608;28;20292;-60
2023/05/11 00:21:31;;;;;;;22.33;15.13;;;13.80;99.90;;;;;;5046537;28;20578;-63
2023/05/11 00:23:57;;;;;;;24.00;14.67;;;13.80;99.90;;;;;;5046023;28;20280;-60
2023/05/11 00:26:25;;;;;;;23.83;15.23;;;13.90;99.90;;;;;;5046913;28;20199;-60
2023/05/11 00:28:52;;;;;;;20.73;14.57;;;13.80;99.90;;;;;;5045633;28;20219;-59
2023/05/11 00:31:19;;;;;;;21.87;14.67;;;13.80;99.90;;;;;;5044145;28;20202;-60
2023/05/11 00:33:46;;;;;;;21.70;14.07;;;13.80;99.90;;;;;;5046824;28;20232;-60
2023/05/11 00:36:12;;;;;;;26.33;15.50;;;13.80;99.90;;;;;;5045918;28;20711;-60
2023/05/11 00:38:40;;;;;;;21.13;14.73;;;13.80;99.90;;;;;;5038832;28;20207;-60
2023/05/11 00:41:07;;;;;;;22.30;15.90;;;13.80;99.90;;;;;;5040186;28;20212;-60
2023/05/11 00:43:34;;;;;;;25.60;16.47;;;13.80;99.90;;;;;;5044994;28;20283;-60
2023/05/11 00:46:02;;;;;;;22.07;15.40;;;13.80;99.90;;;;;;5050479;28;20222;-60
2023/05/11 00:48:29;;;;;;;22.97;15.40;;;13.80;99.90;;;;;;5039085;28;21102;-60
2023/05/11 00:50:58;;;;;;;22.20;15.90;;;13.60;99.90;;;;;;5042363;28;20211;-60
2023/05/11 00:53:25;;;;;;;24.47;15.63;;;13.50;99.90;;;;;;5037913;28;22292;-60
2023/05/11 00:55:53;;;;;;;26.63;16.83;;;13.40;99.90;;;;;;5045150;28;20292;-60
2023/05/11 00:58:20;;;;;;;25.37;16.50;;;13.40;99.90;;;;;;5026885;28;20216;-60
2023/05/11 01:00:47;;;;;;;24.53;16.17;;;13.40;99.90;;;;;;5044506;28;20207;-60
2023/05/11 01:03:14;;;;;;;24.87;16.77;;;13.40;99.90;;;;;;5042791;28;20245;-60
2023/05/11 01:06:17;;;;;;;23.03;15.93;;;13.40;99.90;;;;;;5041837;28;20203;-60
2023/05/11 01:08:46;;;;;;;27.07;16.10;;;13.50;99.90;;;;;;5039301;28;20220;-60
2023/05/11 01:11:33;;;;;;;22.93;16.00;;;13.50;99.90;;;;;;5045556;28;20211;-60
2023/05/11 01:14:11;;;;;;;25.47;17.17;;;13.60;99.90;;;;;;5043149;28;20221;-60
2023/05/11 01:16:40;;;;;;;26.20;16.60;;;13.60;99.90;;;;;;5040838;28;20730;-60
2023/05/11 01:19:11;;;;;;;24.30;17.17;;;13.60;99.90;;;;;;5058698;28;20629;-60
2023/05/11 01:21:39;;;;;;;29.77;17.80;;;13.70;99.90;;;;;;5045476;28;20230;-60
2023/05/11 01:24:45;;;;;;;27.93;17.30;;;13.70;99.90;;;;;;5040359;28;20210;-60
2023/05/11 01:27:41;;;;;;;28.37;18.03;;;13.70;99.90;;;;;;5039848;28;20212;-60
2023/05/11 01:30:23;;;;;;;28.03;16.10;;;13.60;99.90;;;;;;5039617;28;20194;-60
2023/05/11 01:32:54;;;;;;;26.33;19.17;;;13.70;99.90;;;;;;5036377;28;20310;-60
2023/05/11 01:35:25;;;;;;;27.20;18.03;;;13.70;99.90;;;;;;5044555;28;20237;-60
2023/05/11 01:37:56;;;;;;;28.23;17.47;;;13.60;99.90;;;;;;5043153;28;20208;-60
2023/05/11 01:40:27;;;;;;;26.27;17.20;;;13.60;99.90;;;;;;5041734;28;20305;-60
2023/05/11 01:43:01;;;;;;;25.20;17.83;;;13.60;99.90;;;;;;5042437;28;20238;-60
2023/05/11 01:45:32;;;;;;;27.70;17.40;;;13.50;99.90;;;;;;5043262;28;20629;-61
2023/05/11 01:48:03;;;;;;;31.67;18.13;;;13.50;99.90;;;;;;5046095;28;20288;-60
2023/05/11 01:50:31;;;;;;;26.00;17.80;;;13.60;99.90;;;;;;5047067;28;20203;-60
2023/05/11 01:53:00;;;;;;;26.10;17.53;;;13.50;99.90;;;;;;5047002;28;20244;-60
2023/05/11 01:55:29;;;;;;;29.40;18.97;;;13.60;99.90;;;;;;5046228;28;20207;-60
2023/05/11 01:57:59;;;;;;;30.17;19.10;;;13.60;99.90;;;;;;5049155;28;20616;-60
2023/05/11 02:00:26;;;;;;;27.93;17.30;;;13.50;99.90;;;;;;5045738;28;20207;-60
2023/05/11 02:02:54;;;;;;;29.47;18.23;;;13.50;99.90;;;;;;5046035;28;20267;-60
2023/05/11 02:05:23;;;;;;;28.67;18.83;;;13.60;99.90;;;;;;5040404;28;20202;-60
2023/05/11 02:07:53;;;;;;;34.73;18.90;;;13.70;99.90;;;;;;5055581;28;20203;-60
2023/05/11 02:10:24;;;;;;;28.10;20.20;;;13.60;99.90;;;;;;5045220;28;20290;-60
2023/05/11 02:12:52;;;;;;;32.83;19.33;;;13.60;99.90;;;;;;5048392;28;20620;-60
2023/05/11 02:15:21;;;;;;;30.83;19.40;;;13.60;99.90;;;;;;5039907;28;20211;-60
2023/05/11 02:17:50;;;;;;;29.70;19.27;;;13.60;99.90;;;;;;5038565;28;20207;-60
2023/05/11 02:20:18;;;;;;;29.40;18.10;;;13.60;99.90;;;;;;5024637;28;20239;-60
2023/05/11 02:22:46;;;;;;;31.67;18.57;;;13.60;99.90;;;;;;5047232;28;20249;-60
2023/05/11 02:25:14;;;;;;;27.00;19.73;;;13.70;99.90;;;;;;5046443;28;20231;-61
2023/05/11 02:27:41;;;;;;;31.83;18.47;;;13.60;99.90;;;;;;5043556;28;20246;-60
2023/05/11 02:30:08;;;;;;;31.53;18.70;;;13.70;99.90;;;;;;5035591;28;20192;-60
2023/05/11 02:32:41;;;;;;;31.90;19.20;;;13.70;99.90;;;;;;5041456;28;20262;-61
2023/05/11 02:35:17;;;;;;;32.20;19.73;;;13.70;99.90;;;;;;5039109;28;20326;-60
2023/05/11 02:37:47;;;;;;;29.73;18.63;;;13.60;99.90;;;;;;5042014;28;20230;-60
2023/05/11 02:40:23;;;;;;;28.07;18.50;;;13.70;99.90;;;;;;5050851;28;20280;-60
2023/05/11 02:42:57;;;;;;;31.03;19.13;;;13.70;99.90;;;;;;5039924;28;20222;-60
2023/05/11 02:45:29;;;;;;;29.73;19.03;;;13.70;99.90;;;;;;5040789;28;21138;-60
2023/05/11 02:47:59;;;;;;;29.80;18.73;;;13.50;99.90;;;;;;5041021;28;20642;-60
2023/05/11 02:50:29;;;;;;;27.83;18.80;;;13.50;99.90;;;;;;5037805;28;20313;-60
2023/05/11 02:53:00;;;;;;;28.33;18.90;;;13.40;99.90;;;;;;5039131;28;20205;-60
2023/05/11 02:55:28;;;;;;;31.10;17.90;;;13.50;99.90;;;;;;5039141;28;20217;-60
2023/05/11 02:57:55;;;;;;;27.47;17.67;;;13.40;99.90;;;;;;5039447;28;20726;-60
2023/05/11 03:00:22;;;;;;;30.10;18.23;;;13.40;99.90;;;;;;5039413;28;20231;-60
2023/05/11 03:02:49;;;;;;;26.27;17.30;;;13.40;99.90;;;;;;5038446;28;20245;-60
2023/05/11 03:05:17;;;;;;;28.73;17.53;;;13.40;99.90;;;;;;5039471;28;20778;-60
2023/05/11 03:07:44;;;;;;;30.00;18.03;;;13.40;99.90;;;;;;5034390;28;20218;-60
2023/05/11 03:10:11;;;;;;;27.10;17.30;;;13.20;99.90;;;;;;5038258;28;20648;-60
2023/05/11 03:12:38;;;;;;;27.77;17.37;;;13.20;99.90;;;;;;5033930;28;20626;-60
2023/05/11 03:15:06;;;;;;;28.30;18.10;;;13.30;99.90;;;;;;5035014;28;20216;-59
2023/05/11 03:17:35;;;;;;;29.67;17.90;;;13.30;99.90;;;;;;5022530;28;20275;-60
2023/05/11 03:20:03;;;;;;;27.47;16.53;;;13.40;99.90;;;;;;5038716;28;22393;-60
2023/05/11 03:22:31;;;;;;;26.60;17.67;;;13.40;99.90;;;;;;5038891;28;20803;-60
2023/05/11 03:24:59;;;;;;;30.57;18.33;;;13.40;99.90;;;;;;5039074;28;20198;-61
2023/05/11 03:27:27;;;;;;;26.43;17.47;;;13.50;99.90;;;;;;5042268;28;20199;-60
2023/05/11 03:29:56;;;;;;;28.27;17.87;;;13.40;99.90;;;;;;5038722;28;21398;-60
2023/05/11 03:32:23;;;;;;;31.27;17.47;;;13.30;99.90;;;;;;5040949;28;20325;-60
2023/05/11 03:34:51;;;;;;;31.53;16.83;;;13.30;99.90;;;;;;5055377;28;20814;-60
2023/05/11 03:37:19;;;;;;;23.83;17.00;;;13.40;99.90;;;;;;5041374;28;20209;-60
2023/05/11 03:39:51;;;;;;;30.10;16.97;;;13.40;99.90;;;;;;5017536;28;20270;-61
2023/05/11 03:42:19;;;;;;;30.10;17.87;;;13.20;99.90;;;;;;5040574;28;20232;-60
2023/05/11 03:44:48;;;;;;;25.50;16.23;;;13.20;99.90;;;;;;5034152;28;20226;-60
2023/05/11 03:47:17;;;;;;;26.37;16.73;;;13.30;99.90;;;;;;5040437;28;20739;-60
2023/05/11 03:49:45;;;;;;;28.37;16.60;;;13.30;99.90;;;;;;5035327;28;20698;-60
2023/05/11 03:52:12;;;;;;;29.47;17.40;;;13.40;99.90;;;;;;5041326;28;20719;-60
2023/05/11 03:54:41;;;;;;;26.53;17.53;;;13.40;99.90;;;;;;5032195;28;20211;-60
2023/05/11 03:57:09;;;;;;;29.27;18.23;;;13.40;99.90;;;;;;5037366;28;20201;-60
2023/05/11 03:59:38;;;;;;;26.13;17.67;;;13.20;99.90;;;;;;5034815;28;20779;-60
2023/05/11 04:02:06;;;;;;;25.03;16.33;;;13.30;99.90;;;;;;5038640;28;20693;-60
2023/05/11 04:04:33;;;;;;;27.00;16.63;;;13.20;99.90;;;;;;5016582;28;20674;-60
2023/05/11 04:07:00;;;;;;;29.10;16.87;;;13.20;99.90;;;;;;5058862;28;20195;-60
2023/05/11 04:09:27;;;;;;;29.63;17.07;;;13.00;99.90;;;;;;5039568;28;20640;-60
2023/05/11 04:11:54;;;;;;;29.10;17.97;;;13.10;99.90;;;;;;5038858;28;20215;-60
2023/05/11 04:14:20;;;;;;;27.13;17.33;;;13.20;99.90;;;;;;5034774;28;20217;-60
2023/05/11 04:16:47;;;;;;;29.00;17.43;;;13.30;99.90;;;;;;5041350;28;21795;-60
2023/05/11 04:19:15;;;;;;;24.53;17.37;;;13.20;99.90;;;;;;5040870;28;20218;-60
2023/05/11 04:21:42;;;;;;;35.40;17.67;;;13.30;99.90;;;;;;5035302;28;20628;-60
2023/05/11 04:24:09;;;;;;;27.27;16.73;;;13.30;99.90;;;;;;5035780;28;20772;-60
2023/05/11 04:26:35;;;;;;;25.60;16.63;;;13.40;99.90;;;;;;5043124;28;20192;-60
2023/05/11 04:29:02;;;;;;;27.23;17.10;;;13.40;99.90;;;;;;5036503;28;20686;-60
2023/05/11 04:31:29;;;;;;;26.53;16.97;;;13.40;99.90;;;;;;5037339;28;20202;-60
2023/05/11 04:33:56;;;;;;;29.73;18.13;;;13.40;99.90;;;;;;5020549;28;20242;-60
2023/05/11 04:36:23;;;;;;;30.17;17.10;;;13.40;99.90;;;;;;5035899;28;20225;-60
2023/05/11 04:38:52;;;;;;;30.80;17.17;;;13.30;99.90;;;;;;5035218;28;20289;-60
2023/05/11 04:41:19;;;;;;;25.47;17.43;;;13.40;99.90;;;;;;5038803;28;20207;-60
2023/05/11 04:43:46;;;;;;;29.27;17.70;;;13.40;99.90;;;;;;5042579;28;20222;-60
2023/05/11 04:46:13;;;;;;;27.90;18.83;;;13.40;99.90;;;;;;5036235;28;20301;-60
2023/05/11 04:48:40;;;;;;;27.93;17.80;;;13.50;99.90;;;;;;5035619;28;20197;-60
2023/05/11 04:51:07;;;;;;;29.53;17.53;;;13.50;99.90;;;;;;5035844;28;21193;-60
2023/05/11 04:53:34;;;;;;;28.00;19.07;;;13.40;99.90;;;;;;5037288;28;20223;-60
2023/05/11 04:56:01;;;;;;;30.13;19.17;;;13.40;99.90;;;;;;5043572;28;20893;-60
2023/05/11 04:58:27;;;;;;;30.07;19.73;;;13.30;99.90;;;;;;5039884;28;20235;-60
2023/05/11 05:00:54;;;;;;;29.47;18.43;;;13.30;99.90;;;;;;5038279;28;20349;-60
2023/05/11 05:03:21;;;;;;;27.67;18.40;;;13.30;99.90;;;;;;5039007;28;20244;-60
2023/05/11 05:05:48;;;;;;;29.40;17.70;;;13.40;99.90;;;;;;5039929;28;20294;-60
2023/05/11 05:08:16;;;;;;;30.93;18.83;;;13.40;99.90;;;;;;5040357;28;20275;-60
2023/05/11 05:10:43;;;;;;;26.63;18.63;;;13.50;99.90;;;;;;5037846;28;20200;-60
2023/05/11 05:13:10;;;;;;;29.10;17.63;;;13.50;99.90;;;;;;5035306;28;20203;-60
2023/05/11 05:15:37;;;;;;;30.77;18.83;;;13.60;99.90;;;;;;5002599;28;20640;-60
2023/05/11 05:18:03;;;;;;;27.43;17.83;;;13.60;99.90;;;;;;5038349;28;20938;-60
2023/05/11 05:20:30;;;;;;;33.90;19.23;;;13.70;99.90;;;;;;5038898;28;20219;-60
2023/05/11 05:22:57;;;;;;;30.77;18.53;;;13.70;99.90;;;;;;5039017;28;20215;-60
2023/05/11 05:25:24;;;;;;;31.47;19.43;;;13.60;99.90;;;;;;5042366;28;20526;-60
2023/05/11 05:27:51;;;;;;;33.63;20.23;;;13.70;99.90;;;;;;5039706;28;20947;-60
2023/05/11 05:30:18;;;;;;;33.00;19.80;;;13.80;99.90;;;;;;5041656;28;20204;-60
2023/05/11 05:32:45;;;;;;;31.87;20.37;;;13.80;99.90;;;;;;5039097;28;20237;-60
2023/05/11 05:35:12;;;;;;;30.77;20.03;;;13.80;99.90;;;;;;5042476;28;20210;-60
2023/05/11 05:37:39;;;;;;;34.37;21.00;;;13.70;99.90;;;;;;5042642;28;20615;-60
2023/05/11 05:40:06;;;;;;;36.53;20.70;;;13.70;99.90;;;;;;5044796;28;20293;-58
2023/05/11 05:42:33;;;;;;;34.53;20.83;;;13.60;99.90;;;;;;5040338;28;20210;-59
2023/05/11 05:45:00;;;;;;;33.83;21.80;;;13.50;99.90;;;;;;5041096;28;20219;-59
2023/05/11 05:47:27;;;;;;;36.07;21.87;;;13.60;99.90;;;;;;5042754;28;20711;-58
2023/05/11 05:49:54;;;;;;;32.93;20.70;;;13.80;99.90;;;;;;5040795;28;20578;-58
2023/05/11 05:52:20;;;;;;;42.93;22.17;;;13.80;99.90;;;;;;5041949;28;20206;-59
2023/05/11 05:54:47;;;;;;;38.33;22.57;;;13.80;99.90;;;;;;5040013;28;22423;-59
2023/05/11 05:57:14;;;;;;;44.87;23.77;;;13.70;99.90;;;;;;5039256;28;20282;-58
2023/05/11 05:59:41;;;;;;;39.77;23.17;;;13.70;99.90;;;;;;5042425;28;20199;-58
2023/05/11 06:02:08;;;;;;;46.57;25.70;;;13.70;99.90;;;;;;5029770;28;20285;-59
2023/05/11 06:04:35;;;;;;;45.37;25.97;;;13.70;99.90;;;;;;5033693;28;20241;-58
2023/05/11 06:07:02;;;;;;;42.20;23.40;;;13.50;99.90;;;;;;5042411;28;20200;-59
2023/05/11 06:09:29;;;;;;;45.37;24.53;;;13.60;99.90;;;;;;5037486;28;20284;-61
2023/05/11 06:11:56;;;;;;;48.60;25.70;;;13.70;99.90;;;;;;5058193;28;20199;-59
2023/05/11 06:14:23;;;;;;;50.37;25.60;;;13.70;99.90;;;;;;5037856;28;20283;-59
2023/05/11 06:16:50;;;;;;;44.77;24.57;;;13.60;99.90;;;;;;5042768;28;20245;-59
2023/05/11 06:19:16;;;;;;;46.27;26.07;;;13.80;99.90;;;;;;4677136;28;10000211;-59
2023/05/11 06:21:44;;;;;;;46.27;28.03;;;13.70;99.90;;;;;;5048602;28;20538;-58
2023/05/11 06:24:11;;;;;;;44.53;27.33;;;13.80;99.90;;;;;;5033309;28;20229;-59
2023/05/11 06:26:39;;;;;;;49.20;27.27;;;13.90;99.90;;;;;;5034587;28;20292;-61
2023/05/11 06:29:06;;;;;;;54.17;28.67;;;14.00;99.90;;;;;;5055884;28;20206;-60
2023/05/11 06:31:33;;;;;;;51.20;27.73;;;13.90;99.90;;;;;;5033432;28;20261;-59
2023/05/11 06:34:00;;;;;;;50.87;28.57;;;13.90;99.90;;;;;;5039262;28;20308;-59
2023/05/11 06:36:27;;;;;;;46.50;28.13;;;13.90;99.90;;;;;;5037262;28;20305;-60
2023/05/11 06:38:55;;;;;;;55.67;28.17;;;13.70;99.90;;;;;;5037154;28;20632;-59
2023/05/11 06:41:21;;;;;;;48.97;27.77;;;13.90;99.90;;;;;;5041707;28;20207;-59
2023/05/11 06:43:48;;;;;;;50.50;28.33;;;13.90;99.90;;;;;;5041006;28;20248;-59
2023/05/11 06:46:16;;;;;;;52.57;28.67;;;13.80;99.90;;;;;;5035968;28;20200;-60
2023/05/11 06:48:43;;;;;;;55.33;29.97;;;14.10;99.90;;;;;;5033778;28;20210;-59
2023/05/11 06:51:11;;;;;;;56.83;29.47;;;14.20;99.90;;;;;;5039681;28;20228;-59
2023/05/11 06:53:38;;;;;;;55.27;28.43;;;14.20;99.90;;;;;;5025212;28;20795;-59
2023/05/11 06:56:05;;;;;;;53.37;27.90;;;14.00;99.90;;;;;;5028563;28;20199;-59
2023/05/11 06:58:32;;;;;;;51.17;28.30;;;14.00;99.90;;;;;;5030007;28;20708;-59
2023/05/11 07:01:00;;;;;;;53.97;28.80;;;14.20;99.90;;;;;;5026381;28;20212;-59
2023/05/11 07:03:27;;;;;;;50.37;28.70;;;14.20;99.90;;;;;;5018683;28;20294;-60
2023/05/11 07:05:54;;;;;;;60.00;29.70;;;14.30;99.90;;;;;;5035581;28;20921;-59
2023/05/11 07:08:21;;;;;;;57.53;30.60;;;14.40;99.90;;;;;;5036484;28;20725;-59
2023/05/11 07:10:48;;;;;;;63.93;31.07;;;14.30;99.90;;;;;;5030713;28;20291;-59
2023/05/11 07:13:15;;;;;;;53.77;28.67;;;14.30;99.90;;;;;;5038017;28;20715;-57
2023/05/11 07:15:42;;;;;;;54.47;28.70;;;14.30;99.90;;;;;;5040722;28;20202;-59
2023/05/11 07:18:08;;;;;;;48.83;28.27;;;14.40;99.90;;;;;;5031068;28;20206;-59
2023/05/11 07:20:35;;;;;;;53.03;27.73;;;14.50;99.90;;;;;;5019751;28;20852;-59
2023/05/11 07:23:02;;;;;;;51.93;27.53;;;14.30;99.90;;;;;;5027647;28;20202;-59
2023/05/11 07:25:29;;;;;;;55.80;28.83;;;14.30;99.90;;;;;;5031563;28;20230;-59
2023/05/11 07:27:56;;;;;;;46.50;27.77;;;14.20;99.90;;;;;;5034037;28;20276;-59
2023/05/11 07:30:23;;;;;;;50.00;27.93;;;14.20;99.90;;;;;;5035707;28;20226;-59
2023/05/11 07:32:50;;;;;;;48.77;26.97;;;14.20;99.90;;;;;;5012956;28;20214;-59
2023/05/11 07:35:17;;;;;;;48.17;27.93;;;14.20;99.90;;;;;;5015684;28;20651;-59
2023/05/11 07:37:44;;;;;;;48.87;27.67;;;14.30;99.90;;;;;;5027776;28;20203;-59
2023/05/11 07:40:11;;;;;;;44.13;27.30;;;14.40;99.90;;;;;;5035469;28;20297;-60
2023/05/11 07:42:38;;;;;;;49.47;27.07;;;14.50;99.90;;;;;;5034232;28;20200;-59
2023/05/11 07:45:05;;;;;;;48.53;28.00;;;14.60;99.90;;;;;;5033661;28;20297;-59
2023/05/11 07:47:32;;;;;;;49.33;27.07;;;14.60;99.90;;;;;;5033724;28;20207;-59
2023/05/11 07:50:02;;;;;;;49.13;27.40;;;14.60;99.90;;;;;;5030526;28;22761;-59
2023/05/11 07:52:29;;;;;;;55.35;33.90;;;14.50;99.90;;;;;;5030751;28;21808;-60
2023/05/11 07:54:56;;;;;;;54.27;29.60;;;14.50;99.90;;;;;;5033232;28;20215;-59
2023/05/11 07:57:23;;;;;;;44.03;27.37;;;14.30;99.90;;;;;;5018130;28;20265;-59
2023/05/11 07:59:50;;;;;;;45.77;27.73;;;14.40;99.90;;;;;;5039056;28;20199;-59
2023/05/11 08:02:17;;;;;;;53.40;29.30;;;14.40;99.90;;;;;;5034836;28;20267;-59
2023/05/11 08:04:45;;;;;;;46.97;28.53;;;14.20;99.90;;;;;;5032762;28;20226;-60
2023/05/11 08:07:12;;;;;;;46.40;27.70;;;14.20;99.90;;;;;;5039197;28;20709;-59
2023/05/11 08:09:38;;;;;;;47.57;27.73;;;14.10;99.90;;;;;;5037275;28;20230;-62
2023/05/11 08:12:06;;;;;;;49.87;28.50;;;14.10;99.90;;;;;;5033804;28;20272;-59
2023/05/11 08:14:32;;;;;;;43.97;27.53;;;14.10;99.90;;;;;;5039529;28;20225;-59
2023/05/11 08:16:59;;;;;;;50.33;28.53;;;14.10;99.90;;;;;;5035433;28;20211;-59
2023/05/11 08:19:26;;;;;;;45.00;28.87;;;14.00;99.90;;;;;;5037185;28;20250;-59
2023/05/11 08:21:53;;;;;;;45.00;27.63;;;14.20;99.90;;;;;;5039108;28;20275;-59
2023/05/11 08:24:20;;;;;;;44.07;27.97;;;14.20;99.90;;;;;;5035293;28;20218;-59
2023/05/11 08:26:47;;;;;;;44.87;27.13;;;14.10;99.90;;;;;;5032099;28;20256;-59
2023/05/11 08:29:14;;;;;;;44.00;26.37;;;14.10;99.90;;;;;;5017786;28;20225;-59
2023/05/11 08:31:40;;;;;;;38.30;25.73;;;14.10;99.90;;;;;;5016692;28;20239;-59
2023/05/11 08:34:08;;;;;;;43.17;25.57;;;14.20;99.90;;;;;;5034304;28;20604;-59
2023/05/11 08:36:45;;;;;;;38.43;23.03;;;14.30;99.90;;;;;;5032891;28;20218;-59
2023/05/11 08:39:12;;;;;;;36.57;23.50;;;14.10;99.90;;;;;;5033220;28;20207;-59
2023/05/11 08:41:39;;;;;;;38.80;22.60;;;14.00;99.90;;;;;;5039419;28;20217;-59
2023/05/11 08:44:06;;;;;;;40.17;22.10;;;14.10;99.90;;;;;;5012240;28;20882;-59
2023/05/11 08:46:35;;;;;;;34.93;23.63;;;14.10;99.90;;;;;;5030281;28;20199;-59
2023/05/11 08:49:02;;;;;;;45.50;24.07;;;14.20;99.90;;;;;;5029441;28;20644;-59
2023/05/11 08:51:29;;;;;;;38.77;24.40;;;14.10;99.90;;;;;;5032988;28;20716;-59
2023/05/11 08:53:58;;;;;;;41.90;24.90;;;14.10;99.90;;;;;;5032860;28;20571;-60
2023/05/11 08:56:29;;;;;;;35.40;22.17;;;14.00;99.90;;;;;;5042660;28;20216;-59
2023/05/11 08:58:56;;;;;;;35.93;23.30;;;14.10;99.90;;;;;;5035042;28;20594;-59
2023/05/11 09:01:27;;;;;;;33.60;21.93;;;14.10;99.90;;;;;;5031516;28;20215;-60
2023/05/11 09:03:55;;;;;;;35.70;23.30;;;14.20;99.90;;;;;;5034804;28;20293;-59
2023/05/11 09:06:25;;;;;;;37.03;22.60;;;14.20;99.90;;;;;;5030460;28;20296;-59
2023/05/11 09:08:53;;;;;;;35.03;22.53;;;14.10;99.90;;;;;;5032501;28;22282;-59
2023/05/11 09:11:21;;;;;;;40.90;23.33;;;14.20;99.90;;;;;;5030865;28;20306;-59
2023/05/11 09:13:49;;;;;;;37.33;23.10;;;14.20;99.90;;;;;;5052156;28;20284;-60
2023/05/11 09:16:16;;;;;;;37.57;22.47;;;14.20;99.90;;;;;;5017356;28;20203;-60
2023/05/11 09:19:03;;;;;;;36.83;22.33;;;14.20;99.90;;;;;;5029533;28;20760;-60
2023/05/11 09:21:30;;;;;;;33.73;22.53;;;14.30;99.90;;;;;;5031348;28;20211;-60
2023/05/11 09:24:00;;;;;;;32.07;20.67;;;14.20;99.90;;;;;;5044698;28;20207;-60
2023/05/11 09:26:28;;;;;;;32.40;21.03;;;14.30;99.90;;;;;;5033653;28;20202;-59
2023/05/11 09:28:57;;;;;;;34.47;20.87;;;14.20;99.90;;;;;;5028571;28;20313;-61
2023/05/11 09:31:44;;;;;;;35.97;20.40;;;14.20;99.90;;;;;;5035521;28;20729;-60
2023/05/11 09:34:19;;;;;;;28.07;19.67;;;14.30;99.90;;;;;;5030647;28;20661;-60
2023/05/11 09:36:51;;;;;;;30.33;20.60;;;14.30;99.90;;;;;;5040352;28;20241;-60
2023/05/11 09:39:33;;;;;;;35.17;20.37;;;14.50;99.90;;;;;;5033643;28;20196;-60
2023/05/11 09:42:20;;;;;;;32.07;19.93;;;14.50;99.90;;;;;;5032761;28;20644;-60
2023/05/11 09:44:47;;;;;;;42.97;22.30;;;14.50;99.90;;;;;;5030030;28;20245;-59
2023/05/11 09:47:21;;;;;;;37.33;22.73;;;14.70;99.90;;;;;;5037295;28;20202;-58
2023/05/11 09:49:48;;;;;;;40.97;21.93;;;14.70;99.90;;;;;;5033244;28;20655;-61
2023/05/11 09:52:16;;;;;;;36.17;21.00;;;14.80;99.90;;;;;;5022664;28;20235;-61
2023/05/11 09:54:46;;;;;;;40.43;20.70;;;14.90;99.90;;;;;;5025427;28;20213;-61
2023/05/11 09:57:30;;;;;;;36.17;21.43;;;14.90;99.90;;;;;;5038804;28;20563;-59
2023/05/11 09:59:58;;;;;;;32.97;22.37;;;14.90;99.90;;;;;;5033077;28;20214;-59
2023/05/11 10:02:27;;;;;;;39.10;21.47;;;14.90;99.90;;;;;;5035617;28;20238;-59
2023/05/11 10:04:56;;;;;;;37.00;21.57;;;14.90;99.90;;;;;;5049366;28;20716;-63
2023/05/11 10:07:24;;;;;;;36.83;22.07;;;14.80;99.90;;;;;;5033087;28;20303;-59
2023/05/11 10:09:54;;;;;;;32.50;20.70;;;14.90;99.90;;;;;;5034519;28;20231;-61
2023/05/11 10:12:22;;;;;;;34.10;21.63;;;14.90;99.90;;;;;;5039359;28;20213;-61
2023/05/11 10:14:53;;;;;;;35.40;21.53;;;15.10;99.90;;;;;;5053248;28;20213;-61
2023/05/11 10:17:20;;;;;;;36.37;20.53;;;15.20;99.90;;;;;;5041538;28;20840;-65
2023/05/11 10:19:48;;;;;;;36.17;22.00;;;15.10;99.90;;;;;;5037147;28;20230;-66
2023/05/11 10:22:18;;;;;;;36.33;21.17;;;14.90;99.90;;;;;;5032528;28;20205;-63
2023/05/11 10:24:46;;;;;;;37.83;21.07;;;15.00;99.90;;;;;;5038051;28;20702;-64
2023/05/11 10:27:13;;;;;;;35.80;21.27;;;15.00;99.90;;;;;;5030462;28;20681;-63
2023/05/11 10:29:42;;;;;;;36.80;21.00;;;15.00;99.90;;;;;;5033969;28;20295;-63
2023/05/11 10:32:10;;;;;;;31.40;20.53;;;15.10;99.90;;;;;;5038135;28;20284;-66
2023/05/11 10:34:40;;;;;;;40.07;22.90;;;15.40;99.90;;;;;;5031340;28;20227;-63
2023/05/11 10:37:08;;;;;;;36.40;22.13;;;15.50;99.90;;;;;;5045347;28;20785;-63
2023/05/11 10:39:43;;;;;;;32.27;20.33;;;15.50;99.90;;;;;;5036835;28;20230;-65
2023/05/11 10:42:37;;;;;;;36.40;21.07;;;15.60;99.90;;;;;;5032252;28;20211;-64
2023/05/11 10:45:34;;;;;;;30.40;19.57;;;15.40;99.90;;;;;;5050609;28;20262;-64
2023/05/11 10:48:31;;;;;;;33.50;19.67;;;15.50;99.90;;;;;;5040542;28;20207;-63
2023/05/11 10:51:26;;;;;;;33.83;19.20;;;15.70;99.90;;;;;;5029837;28;21129;-64
2023/05/11 10:54:26;;;;;;;38.47;19.80;;;15.60;99.90;;;;;;5030299;28;20287;-63
2023/05/11 10:57:03;;;;;;;34.87;20.80;;;15.50;99.90;;;;;;5029815;28;20660;-66
2023/05/11 11:00:08;;;;;;;31.67;19.90;;;15.60;99.90;;;;;;5033414;28;20359;-65
2023/05/11 11:02:36;;;;;;;38.67;20.30;;;15.80;99.90;;;;;;5032485;28;20241;-64
2023/05/11 11:05:06;;;;;;;27.40;18.03;;;16.00;99.90;;;;;;5037367;28;20813;-63
2023/05/11 11:07:56;;;;;;;35.53;19.47;;;16.10;99.90;;;;;;5036693;28;20193;-63
2023/05/11 11:10:38;;;;;;;31.93;19.53;;;16.20;99.90;;;;;;5037872;28;20215;-64
2023/05/11 11:13:07;;;;;;;35.00;19.20;;;16.30;99.90;;;;;;5030473;28;20615;-63
2023/05/11 11:15:52;;;;;;;31.57;18.97;;;16.30;99.90;;;;;;5034268;28;20207;-64
2023/05/11 11:18:25;;;;;;;30.40;18.30;;;16.50;99.90;;;;;;5032746;28;20230;-64
2023/05/11 11:20:54;;;;;;;34.97;17.90;;;16.40;99.90;;;;;;5036306;28;21059;-65
2023/05/11 11:23:44;;;;;;;31.53;17.47;;;16.50;99.90;;;;;;5035323;28;20964;-64
2023/05/11 11:26:16;;;;;;;28.10;17.73;;;16.40;99.90;;;;;;5033249;28;20961;-64
2023/05/11 11:28:59;;;;;;;31.33;18.27;;;16.10;99.90;;;;;;5040121;28;20236;-63
2023/05/11 11:31:33;;;;;;;27.83;18.17;;;16.10;99.90;;;;;;5038166;28;20254;-65
2023/05/11 11:34:26;;;;;;;32.33;17.60;;;16.30;99.90;;;;;;5034075;28;20222;-63
2023/05/11 11:37:02;;;;;;;30.27;17.13;;;16.40;99.90;;;;;;5029273;28;20209;-63
2023/05/11 11:39:41;;;;;;;28.60;17.27;;;16.80;99.90;;;;;;5041057;28;20668;-64
2023/05/11 11:42:24;;;;;;;33.23;18.80;;;16.80;99.90;;;;;;5037111;28;21644;-63
2023/05/11 11:44:51;;;;;;;29.80;17.27;;;16.80;99.90;;;;;;5039721;28;20215;-65
2023/05/11 11:47:19;;;;;;;24.57;16.60;;;16.90;99.90;;;;;;5038920;28;20283;-64
2023/05/11 11:49:52;;;;;;;26.97;16.60;;;17.20;99.90;;;;;;5036182;28;20285;-63
2023/05/11 11:52:28;;;;;;;25.47;15.33;;;17.20;99.90;;;;;;5036633;28;20308;-63
2023/05/11 11:54:58;;;;;;;23.97;16.10;;;17.30;99.90;;;;;;5034615;28;20208;-63
2023/05/11 11:57:31;;;;;;;29.43;15.37;;;17.20;99.90;;;;;;5034564;28;20290;-63
2023/05/11 12:00:10;;;;;;;23.23;14.87;;;17.70;99.90;;;;;;5031665;28;20646;-63
2023/05/11 12:02:41;;;;;;;25.60;15.70;;;18.00;99.90;;;;;;5028696;28;20681;-64
2023/05/11 12:05:21;;;;;;;24.10;15.37;;;17.90;99.90;;;;;;5030850;28;20342;-63
2023/05/11 12:07:50;;;;;;;26.03;15.10;;;18.00;99.90;;;;;;5040752;28;20198;-63
2023/05/11 12:10:21;;;;;;;24.10;15.70;;;17.70;99.90;;;;;;5031959;28;20832;-63
2023/05/11 12:12:53;;;;;;;22.87;15.67;;;17.30;99.90;;;;;;5039438;28;20203;-64
2023/05/11 12:15:28;;;;;;;26.47;15.73;;;17.30;99.90;;;;;;5033540;28;22859;-63
2023/05/11 12:17:56;;;;;;;24.33;14.13;;;17.10;99.90;;;;;;5040514;28;20254;-63
2023/05/11 12:20:24;;;;;;;25.87;15.37;;;17.10;99.90;;;;;;5035855;28;20205;-63
2023/05/11 12:22:51;;;;;;;23.33;15.03;;;16.80;99.90;;;;;;5039364;28;20257;-63
2023/05/11 12:25:19;;;;;;;21.60;14.27;;;17.10;99.90;;;;;;5035067;28;20249;-63
2023/05/11 12:27:57;;;;;;;25.73;14.63;;;17.00;99.90;;;;;;5029912;28;20207;-65
2023/05/11 12:30:25;;;;;;;20.53;13.30;;;17.10;99.90;;;;;;5031324;28;20198;-63
2023/05/11 12:32:53;;;;;;;20.27;13.13;;;17.30;99.90;;;;;;5024479;28;20359;-65
2023/05/11 12:35:28;;;;;;;23.20;14.43;;;17.20;99.90;;;;;;5027661;28;20268;-66
2023/05/11 12:37:56;;;;;;;24.27;12.57;;;17.30;99.90;;;;;;5029802;28;20296;-63
2023/05/11 12:40:23;;;;;;;19.87;12.87;;;17.60;99.90;;;;;;5036465;28;21508;-62